createdAt,value
2024-04-08T05:14:48.783Z,12.23
2024-04-08T05:17:16.429Z,8.10
2024-04-08T05:19:43.940Z,9.30
2024-04-08T05:22:17.662Z,6.85
2024-04-08T05:24:46.338Z,8.70
2024-04-08T05:27:13.804Z,12.90
2024-04-08T05:29:41.331Z,9.82
2024-04-08T05:32:08.706Z,10.60
2024-04-08T05:34:36.334Z,8.93
2024-04-08T05:37:04.305Z,6.95
2024-04-08T05:39:31.751Z,10.80
2024-04-08T05:41:59.208Z,7.80
2024-04-08T05:44:26.659Z,8.38
2024-04-08T05:46:54.034Z,7.75
2024-04-08T05:49:21.511Z,8.00
2024-04-08T05:51:48.903Z,11.65
2024-04-08T05:54:17.410Z,13.50
2024-04-08T05:56:44.894Z,13.65
2024-04-08T05:59:12.374Z,12.77
2024-04-08T06:01:39.711Z,9.38
2024-04-08T06:04:09.250Z,7.47
2024-04-08T06:06:36.659Z,12.20
2024-04-08T06:09:06.604Z,12.18
2024-04-08T06:11:34.051Z,11.05
2024-04-08T06:14:01.714Z,6.90
2024-04-08T06:16:29.158Z,11.05
2024-04-08T06:19:01.303Z,8.85
2024-04-08T06:21:29.176Z,8.57
2024-04-08T06:23:56.588Z,6.82
2024-04-08T06:26:24.124Z,8.63
2024-04-08T06:28:51.684Z,9.50
2024-04-08T06:31:19.169Z,15.30
2024-04-08T06:33:46.532Z,14.27
2024-04-08T06:36:14.304Z,11.32
2024-04-08T06:38:41.787Z,14.98
2024-04-08T06:41:09.422Z,7.80
2024-04-08T06:43:36.885Z,10.52
2024-04-08T06:46:04.497Z,10.52
2024-04-08T06:48:32.265Z,5.53
2024-04-08T06:50:59.868Z,7.85
2024-04-08T06:53:27.526Z,6.93
2024-04-08T06:55:54.995Z,10.10
2024-04-08T06:58:23.343Z,7.95
2024-04-08T07:00:51.825Z,10.48
2024-04-08T07:03:19.433Z,7.38
2024-04-08T07:05:47.882Z,8.50
2024-04-08T07:08:18.297Z,9.40
2024-04-08T07:10:47.327Z,9.82
2024-04-08T07:13:14.820Z,12.07
2024-04-08T07:15:44.223Z,7.22
2024-04-08T07:18:12.272Z,5.80
2024-04-08T07:20:40.280Z,5.57
2024-04-08T07:23:07.831Z,7.95
2024-04-08T07:25:35.301Z,6.15
2024-04-08T07:28:02.834Z,7.60
2024-04-08T07:30:31.302Z,7.95
2024-04-08T07:33:02.066Z,7.13
2024-04-08T07:35:29.643Z,10.55
2024-04-08T07:37:57.303Z,6.57
2024-04-08T07:40:24.704Z,5.35
2024-04-08T07:42:52.241Z,7.55
2024-04-08T07:45:19.647Z,7.35
2024-04-08T07:47:47.220Z,6.57
2024-04-08T07:50:18.362Z,10.90
2024-04-08T07:52:45.890Z,5.97
2024-04-08T07:55:13.375Z,8.23
2024-04-08T07:57:41.109Z,10.77
2024-04-08T08:00:09.227Z,7.32
2024-04-08T08:02:39.440Z,8.50
2024-04-08T08:05:07.733Z,13.32
2024-04-08T08:07:35.186Z,9.05
2024-04-08T08:10:02.667Z,6.22
2024-04-08T08:12:30.267Z,7.43
2024-04-08T08:14:57.796Z,7.40
2024-04-08T08:17:27.063Z,6.78
2024-04-08T08:19:56.256Z,7.75
2024-04-08T08:22:24.503Z,6.47
2024-04-08T08:24:52.099Z,9.05
2024-04-08T08:27:19.510Z,9.27
2024-04-08T08:29:51.873Z,6.78
2024-04-08T08:32:19.661Z,4.95
2024-04-08T08:34:47.274Z,6.97
2024-04-08T08:37:14.682Z,8.63
2024-04-08T08:39:42.258Z,5.10
2024-04-08T08:42:19.006Z,5.70
2024-04-08T08:44:53.891Z,6.63
2024-04-08T08:47:23.768Z,7.15
2024-04-08T08:49:56.748Z,6.00
2024-04-08T08:52:25.916Z,6.13
2024-04-08T08:54:54.585Z,7.00
2024-04-08T08:57:23.026Z,7.40
2024-04-08T08:59:51.896Z,7.57
2024-04-08T09:02:19.279Z,4.65
2024-04-08T09:04:46.686Z,7.03
2024-04-08T09:07:14.216Z,9.82
2024-04-08T09:09:41.778Z,8.88
2024-04-08T09:12:12.391Z,6.05
2024-04-08T09:14:39.924Z,7.07
2024-04-08T09:17:08.633Z,8.75
2024-04-08T09:19:36.482Z,6.53
2024-04-08T09:22:06.956Z,5.07
2024-04-08T09:24:34.958Z,7.43
2024-04-08T09:27:05.781Z,5.03
2024-04-08T09:29:34.222Z,5.40
2024-04-08T09:32:02.083Z,5.93
2024-04-08T09:34:30.857Z,8.07
2024-04-08T09:36:58.333Z,7.40
2024-04-08T09:39:26.992Z,6.25
2024-04-08T09:41:57.976Z,5.75
2024-04-08T09:44:31.926Z,11.02
2024-04-08T09:47:02.269Z,7.95
2024-04-08T09:49:41.533Z,6.43
2024-04-08T09:52:15.018Z,8.18
2024-04-08T09:54:42.826Z,4.82
2024-04-08T09:57:13.490Z,7.05
2024-04-08T09:59:43.503Z,7.93
2024-04-08T10:02:19.454Z,7.88
2024-04-08T10:04:51.509Z,8.50
2024-04-08T10:07:19.156Z,9.40
2024-04-08T10:09:46.884Z,6.43
2024-04-08T10:12:14.322Z,8.63
2024-04-08T10:14:42.006Z,7.57
2024-04-08T10:17:10.267Z,6.10
2024-04-08T10:19:37.811Z,6.43
2024-04-08T10:22:05.310Z,7.30
2024-04-08T10:24:40.222Z,6.80
2024-04-08T10:27:13.540Z,5.38
2024-04-08T10:29:42.436Z,5.07
2024-04-08T10:32:10.036Z,6.25
2024-04-08T10:34:38.002Z,6.78
2024-04-08T10:37:05.480Z,6.40
2024-04-08T10:39:33.071Z,6.18
2024-04-08T10:42:16.453Z,4.88
2024-04-08T10:44:43.896Z,4.20
2024-04-08T10:47:11.518Z,5.13
2024-04-08T10:49:41.622Z,6.07
2024-04-08T10:52:12.040Z,6.65
2024-04-08T10:54:40.630Z,6.65
2024-04-08T10:57:08.170Z,6.97
2024-04-08T10:59:35.589Z,6.88
2024-04-08T11:02:03.152Z,4.20
2024-04-08T11:04:31.099Z,7.10
2024-04-08T11:06:58.726Z,7.95
2024-04-08T11:09:26.637Z,4.55
2024-04-08T11:11:54.797Z,5.55
2024-04-08T11:14:22.631Z,7.28
2024-04-08T11:16:50.090Z,3.85
2024-04-08T11:19:18.310Z,3.83
2024-04-08T11:21:45.962Z,4.50
2024-04-08T11:24:13.600Z,4.78
2024-04-08T11:26:52.543Z,3.35
2024-04-08T11:29:23.338Z,3.85
2024-04-08T11:31:50.922Z,5.13
2024-04-08T11:34:21.463Z,4.68
2024-04-08T11:39:16.403Z,4.82
2024-04-08T11:41:44.051Z,4.65
2024-04-08T11:44:11.658Z,5.18
2024-04-08T11:46:39.386Z,8.57
2024-04-08T11:49:07.042Z,7.03
2024-04-08T11:51:34.580Z,2.92
2024-04-08T11:54:02.098Z,2.47
2024-04-08T11:56:30.561Z,5.35
2024-04-08T11:58:58.113Z,4.90
2024-04-08T12:01:25.685Z,1.38
2024-04-08T12:03:53.463Z,3.75
2024-04-08T12:06:21.270Z,3.95
2024-04-08T12:08:48.900Z,4.55
2024-04-08T12:11:16.326Z,2.10
2024-04-08T12:13:44.382Z,2.65
2024-04-08T12:16:11.989Z,3.28
2024-04-08T12:18:39.633Z,5.18
2024-04-08T12:21:07.273Z,2.85
2024-04-08T12:23:34.808Z,4.30
2024-04-08T12:26:02.740Z,2.88
2024-04-08T12:28:32.435Z,2.67
2024-04-08T12:31:02.114Z,3.23
2024-04-08T12:33:32.043Z,3.28
2024-04-08T12:36:01.845Z,1.85
2024-04-08T12:38:34.176Z,5.20
2024-04-08T12:41:03.417Z,2.80
2024-04-08T12:43:43.073Z,2.08
2024-04-08T12:46:20.434Z,3.35
2024-04-08T12:48:49.692Z,2.78
2024-04-08T12:51:19.419Z,3.50
2024-04-08T12:53:48.771Z,2.22
2024-04-08T12:56:17.884Z,2.67
2024-04-08T12:58:47.165Z,7.28
2024-04-08T13:01:17.616Z,6.30
2024-04-08T13:06:16.865Z,2.03
2024-04-08T13:08:46.026Z,2.40
2024-04-08T13:11:19.083Z,3.83
2024-04-08T13:13:48.766Z,7.60
2024-04-08T13:16:16.771Z,5.65
2024-04-08T13:18:45.695Z,2.03
2024-04-08T13:21:16.551Z,2.92
2024-04-08T13:23:44.419Z,2.95
2024-04-08T13:26:12.754Z,5.28
2024-04-08T13:28:40.671Z,4.93
2024-04-08T13:31:08.063Z,4.38
2024-04-08T13:33:35.850Z,3.15
2024-04-08T13:36:11.130Z,3.35
2024-04-08T13:38:38.703Z,2.03
2024-04-08T13:41:06.927Z,5.18
2024-04-08T13:43:34.787Z,4.45
2024-04-08T13:46:02.693Z,2.65
2024-04-08T13:48:30.609Z,5.80
2024-04-08T13:50:59.495Z,7.38
2024-04-08T13:53:27.536Z,4.70
2024-04-08T13:56:01.682Z,3.95
2024-04-08T13:58:30.283Z,3.45
2024-04-08T14:00:57.933Z,3.03
2024-04-08T14:03:31.343Z,4.28
2024-04-08T14:05:59.338Z,5.70
2024-04-08T14:08:27.579Z,3.42
2024-04-08T14:10:55.513Z,6.38
2024-04-08T14:13:23.366Z,4.50
2024-04-08T14:15:50.875Z,3.85
2024-04-08T14:18:19.199Z,7.60
2024-04-08T14:20:47.381Z,4.80
2024-04-08T14:23:15.384Z,4.65
2024-04-08T14:25:42.756Z,5.20
2024-04-08T14:28:10.209Z,5.13
2024-04-08T14:30:38.284Z,5.35
2024-04-08T14:33:07.124Z,2.97
2024-04-08T14:35:37.970Z,2.97
2024-04-08T14:40:36.184Z,3.90
2024-04-08T14:43:10.010Z,4.68
2024-04-08T14:45:42.588Z,5.43
2024-04-08T14:48:10.349Z,4.82
2024-04-08T14:50:37.987Z,9.65
2024-04-08T14:53:06.153Z,5.72
2024-04-08T14:55:35.299Z,4.60
2024-04-08T14:58:04.813Z,6.38
2024-04-08T15:00:35.482Z,2.35
2024-04-08T15:03:03.132Z,4.53
2024-04-08T15:05:30.875Z,5.85
2024-04-08T15:07:58.355Z,6.85
2024-04-08T15:10:25.970Z,3.00
2024-04-08T15:12:55.726Z,2.53
2024-04-08T15:15:23.322Z,5.95
2024-04-08T15:17:54.011Z,5.35
2024-04-08T15:20:22.732Z,4.95
2024-04-08T15:22:53.318Z,6.38
2024-04-08T15:27:48.868Z,6.85
2024-04-08T15:30:17.053Z,8.35
2024-04-08T15:32:44.768Z,6.00
2024-04-08T15:35:14.708Z,5.15
2024-04-08T15:37:43.293Z,7.00
2024-04-08T15:40:11.179Z,4.50
2024-04-08T15:42:38.733Z,4.28
2024-04-08T15:45:06.643Z,5.95
2024-04-08T15:47:36.491Z,5.60
2024-04-08T15:50:04.639Z,6.43
2024-04-08T15:52:32.130Z,5.40
2024-04-08T15:54:59.593Z,6.43
2024-04-08T15:57:27.244Z,7.18
2024-04-08T15:59:55.010Z,6.72
2024-04-08T16:02:22.667Z,7.18
2024-04-08T16:04:50.433Z,7.43
2024-04-08T16:07:19.984Z,7.78
2024-04-08T16:09:47.401Z,7.22
2024-04-08T16:12:15.039Z,8.90
2024-04-08T16:14:42.565Z,9.38
2024-04-08T16:17:12.017Z,5.95
2024-04-08T16:19:42.165Z,4.45
2024-04-08T16:22:09.698Z,10.60
2024-04-08T16:24:38.996Z,5.80
2024-04-08T16:27:06.793Z,6.10
2024-04-08T16:29:34.303Z,6.75
2024-04-08T16:32:01.783Z,9.32
2024-04-08T16:34:29.625Z,4.78
2024-04-08T16:36:57.119Z,7.43
2024-04-08T16:39:24.628Z,6.63
2024-04-08T16:41:52.083Z,9.45
2024-04-08T16:44:19.541Z,5.72
2024-04-08T16:46:47.735Z,7.75
2024-04-08T16:49:16.144Z,6.32
2024-04-08T16:51:43.511Z,9.30
2024-04-08T16:54:11.356Z,7.63
2024-04-08T16:56:38.762Z,7.07
2024-04-08T16:59:06.229Z,8.60
2024-04-08T17:01:33.853Z,7.90
2024-04-08T17:04:04.987Z,10.05
2024-04-08T17:06:40.010Z,7.13
2024-04-08T17:09:11.771Z,4.80
2024-04-08T17:11:40.047Z,10.75
2024-04-08T17:14:07.612Z,6.93
2024-04-08T17:16:35.205Z,8.02
2024-04-08T17:19:04.714Z,11.25
2024-04-08T17:21:33.277Z,7.70
2024-04-08T17:24:01.900Z,8.40
2024-04-08T17:26:29.418Z,7.05
2024-04-08T17:28:56.986Z,12.32
2024-04-08T17:31:24.924Z,8.80
2024-04-08T17:33:52.531Z,6.70
2024-04-08T17:36:20.107Z,8.25
2024-04-08T17:38:47.606Z,11.38
2024-04-08T17:41:19.600Z,11.85
2024-04-08T17:43:57.869Z,10.43
2024-04-08T17:46:25.934Z,13.57
2024-04-08T17:48:53.608Z,8.73
2024-04-08T17:51:21.290Z,6.55
2024-04-08T17:53:49.762Z,9.48
2024-04-08T17:56:18.707Z,8.90
2024-04-08T17:58:46.299Z,10.00
2024-04-08T18:01:20.163Z,8.05
2024-04-08T18:03:50.724Z,8.25
2024-04-08T18:06:20.284Z,12.35
2024-04-08T18:08:49.075Z,9.48
2024-04-08T18:11:17.556Z,14.32
2024-04-08T18:13:45.996Z,10.90
2024-04-08T18:16:17.232Z,12.98
2024-04-08T18:18:46.907Z,12.52
2024-04-08T18:21:15.779Z,10.82
2024-04-08T18:23:43.628Z,11.15
2024-04-08T18:26:20.233Z,11.15
2024-04-08T18:28:51.811Z,10.60
2024-04-08T18:31:20.928Z,12.98
2024-04-08T18:33:50.871Z,11.10
2024-04-08T18:36:19.255Z,11.35
2024-04-08T18:38:50.245Z,15.73
2024-04-08T18:41:19.621Z,14.82
2024-04-08T18:43:47.466Z,13.68
2024-04-08T18:46:24.957Z,14.90
2024-04-08T18:48:54.104Z,17.55
2024-04-08T18:51:22.422Z,16.23
2024-04-08T18:53:52.066Z,13.15
2024-04-08T18:56:21.800Z,12.25
2024-04-08T18:58:49.206Z,13.65
2024-04-08T19:01:22.077Z,16.88
2024-04-08T19:03:53.125Z,16.17
2024-04-08T19:06:21.093Z,19.05
2024-04-08T19:08:50.148Z,16.50
2024-04-08T19:11:18.782Z,21.38
2024-04-08T19:13:48.833Z,17.20
2024-04-08T19:16:19.290Z,13.98
2024-04-08T19:18:48.074Z,13.90
2024-04-08T19:21:15.748Z,19.00
2024-04-08T19:23:43.166Z,13.25
2024-04-08T19:26:15.172Z,11.63
2024-04-08T19:28:46.650Z,10.55
2024-04-08T19:33:41.756Z,10.93
2024-04-08T19:36:09.471Z,14.60
2024-04-08T19:38:36.998Z,13.75
2024-04-08T19:41:07.748Z,12.45
2024-04-08T19:43:35.314Z,15.10
2024-04-08T19:46:14.822Z,14.52
2024-04-08T19:48:46.238Z,9.57
2024-04-08T19:51:22.809Z,10.27
2024-04-08T19:53:54.414Z,13.35
2024-04-08T19:56:25.895Z,16.90
2024-04-08T19:58:54.346Z,13.20
2024-04-08T20:01:22.206Z,10.50
2024-04-08T20:03:51.070Z,13.85
2024-04-08T20:06:18.801Z,16.13
2024-04-08T20:08:46.274Z,13.75
2024-04-08T20:11:13.901Z,15.60
2024-04-08T20:13:42.629Z,14.13
2024-04-08T20:16:21.321Z,14.75
2024-04-08T20:18:49.918Z,13.80
2024-04-08T20:21:20.318Z,12.90
2024-04-08T20:23:47.788Z,15.95
2024-04-08T20:26:15.188Z,16.48
2024-04-08T20:28:42.779Z,16.45
2024-04-08T20:31:10.747Z,11.55
2024-04-08T20:33:39.276Z,13.60
2024-04-08T20:36:09.009Z,13.05
2024-04-08T20:38:37.267Z,11.90
2024-04-08T20:41:09.339Z,11.98
2024-04-08T20:43:38.296Z,15.65
2024-04-08T20:46:06.385Z,10.80
2024-04-08T20:48:34.828Z,14.60
2024-04-08T20:51:04.686Z,10.30
2024-04-08T20:53:33.064Z,13.13
2024-04-08T20:56:05.487Z,14.48
2024-04-08T20:58:33.684Z,14.60
2024-04-08T21:01:11.234Z,10.13
2024-04-08T21:03:40.026Z,14.18
2024-04-08T21:06:12.236Z,9.35
2024-04-08T21:08:43.821Z,12.30
2024-04-08T21:11:15.784Z,9.95
2024-04-08T21:13:43.328Z,13.50
2024-04-08T21:16:11.554Z,11.38
2024-04-08T21:18:39.323Z,16.50
2024-04-08T21:21:11.932Z,17.48
2024-04-08T21:23:41.931Z,13.63
2024-04-08T21:26:10.571Z,12.75
2024-04-08T21:28:39.072Z,14.55
2024-04-08T21:31:07.616Z,11.65
2024-04-08T21:33:36.043Z,13.70
2024-04-08T21:36:03.957Z,12.60
2024-04-08T21:38:31.690Z,11.70
2024-04-08T21:40:59.956Z,12.13
2024-04-08T21:43:28.234Z,10.38
2024-04-08T21:46:00.852Z,11.15
2024-04-08T21:48:28.383Z,9.88
2024-04-08T21:50:56.669Z,11.23
2024-04-08T21:53:27.887Z,8.90
2024-04-08T21:56:00.040Z,12.68
2024-04-08T21:58:29.255Z,12.15
2024-04-08T22:00:57.438Z,11.40
2024-04-08T22:03:26.760Z,12.15
2024-04-08T22:05:55.209Z,8.55
2024-04-08T22:08:23.187Z,10.40
2024-04-08T22:10:51.603Z,9.02
2024-04-08T22:13:19.244Z,13.43
2024-04-08T22:15:46.609Z,16.63
2024-04-08T22:18:14.515Z,11.98
2024-04-08T22:20:42.067Z,12.38
2024-04-08T22:23:09.626Z,10.63
2024-04-08T22:25:37.679Z,13.20
2024-04-08T22:28:05.564Z,13.02
2024-04-08T22:30:33.233Z,14.20
2024-04-08T22:33:00.925Z,15.73
2024-04-08T22:35:28.631Z,18.17
2024-04-08T22:37:56.219Z,18.52
2024-04-08T22:40:23.795Z,14.38
2024-04-08T22:42:52.216Z,14.30
2024-04-08T22:45:20.098Z,18.52
2024-04-08T22:47:48.530Z,16.25
2024-04-08T22:50:17.240Z,20.00
2024-04-08T22:52:45.026Z,17.65
2024-04-08T22:55:13.040Z,16.75
2024-04-08T22:57:44.719Z,14.20
2024-04-08T23:00:14.249Z,17.20
2024-04-08T23:02:42.420Z,16.50
2024-04-08T23:05:10.422Z,12.82
2024-04-08T23:07:37.993Z,13.57
2024-04-08T23:10:06.121Z,15.45
2024-04-08T23:12:33.936Z,18.05
2024-04-08T23:15:01.817Z,13.88
2024-04-08T23:17:29.507Z,14.40
2024-04-08T23:19:59.327Z,21.25
2024-04-08T23:22:26.791Z,17.17
2024-04-08T23:24:54.193Z,15.23
2024-04-08T23:27:21.714Z,14.18
2024-04-08T23:29:49.204Z,16.02
2024-04-08T23:32:16.637Z,15.98
2024-04-08T23:34:44.383Z,16.63
2024-04-08T23:37:11.996Z,15.23
2024-04-08T23:39:39.510Z,19.10
2024-04-08T23:42:06.982Z,14.60
2024-04-08T23:44:34.430Z,13.75
2024-04-08T23:47:02.924Z,22.20
2024-04-08T23:49:30.538Z,23.60
2024-04-08T23:51:58.054Z,15.80
2024-04-08T23:54:25.480Z,16.63
2024-04-08T23:56:52.996Z,17.60
2024-04-08T23:59:21.131Z,16.90
